Time;durP1;ratioP1;P1;durP2;ratioP2;P2;SDS_P1;SDS_P2;PMS_P1;PMS_P2;Temp;Humidity;BMP_temperature;BMP_pressure;BME280_temperature;BME280_humidity;BME280_pressure;Samples;Min_cycle;Max_cycle;Signal;HPM_P1;HPM_P2
2024/01/16 00:02:17;;;;;;;7.15;3.85;;;2.10;76.70;;;;;;5005002;28;20249;-74
2024/01/16 00:04:45;;;;;;;15.05;4.60;;;2.10;76.80;;;;;;5017737;28;20213;-77
2024/01/16 00:07:13;;;;;;;7.77;4.10;;;2.10;76.80;;;;;;5006949;28;20216;-77
2024/01/16 00:09:41;;;;;;;10.38;4.30;;;2.10;76.70;;;;;;5001235;28;20225;-75
2024/01/16 00:12:10;;;;;;;6.65;3.90;;;2.10;76.70;;;;;;5003754;28;20220;-77
2024/01/16 00:14:38;;;;;;;9.02;4.30;;;2.10;76.70;;;;;;5003616;28;20641;-76
2024/01/16 00:17:06;;;;;;;9.65;4.32;;;2.20;76.60;;;;;;5005730;28;20217;-77
2024/01/16 00:19:36;;;;;;;11.35;5.00;;;2.10;76.60;;;;;;5003895;28;20202;-76
2024/01/16 00:22:04;;;;;;;9.60;4.88;;;2.10;76.50;;;;;;5003260;28;20312;-77
2024/01/16 00:24:33;;;;;;;7.97;4.30;;;2.10;76.50;;;;;;5001239;28;20216;-76
2024/01/16 00:27:00;;;;;;;9.48;5.10;;;2.10;76.50;;;;;;5001895;28;20213;-77
2024/01/16 00:29:30;;;;;;;8.90;5.80;;;2.10;76.50;;;;;;5004787;28;20221;-76
2024/01/16 00:31:58;;;;;;;14.45;5.38;;;2.10;76.50;;;;;;5009800;28;20573;-76
2024/01/16 00:34:26;;;;;;;12.18;5.30;;;2.10;76.40;;;;;;5004559;28;20588;-76
2024/01/16 00:36:56;;;;;;;11.52;5.70;;;2.10;76.40;;;;;;5003653;28;20228;-76
2024/01/16 00:39:24;;;;;;;9.70;5.25;;;2.10;76.40;;;;;;5017633;28;20658;-77
2024/01/16 00:41:52;;;;;;;11.57;5.70;;;2.10;76.50;;;;;;5006799;28;20206;-77
2024/01/16 00:44:20;;;;;;;10.75;6.13;;;2.10;76.50;;;;;;5005780;28;20208;-77
2024/01/16 00:46:51;;;;;;;11.18;5.60;;;2.10;76.50;;;;;;5020827;28;20650;-76
2024/01/16 00:49:19;;;;;;;11.07;5.20;;;2.10;76.40;;;;;;5019851;28;20226;-77
2024/01/16 00:51:49;;;;;;;9.77;5.40;;;2.10;76.40;;;;;;5016390;28;20214;-77
2024/01/16 00:54:18;;;;;;;15.23;6.30;;;2.10;76.40;;;;;;5004692;28;20208;-77
2024/01/16 00:56:46;;;;;;;11.65;5.65;;;2.10;76.40;;;;;;5007893;28;20223;-77
2024/01/16 00:59:15;;;;;;;11.75;5.50;;;2.10;76.40;;;;;;5005809;28;20234;-77
2024/01/16 01:01:43;;;;;;;16.40;6.68;;;2.10;76.30;;;;;;4998681;28;20233;-77
2024/01/16 01:04:11;;;;;;;13.85;6.40;;;2.10;76.30;;;;;;5016839;28;20228;-76
2024/01/16 01:06:40;;;;;;;10.77;6.30;;;2.10;76.30;;;;;;4998907;28;20676;-76
2024/01/16 01:09:08;;;;;;;12.23;7.13;;;2.10;76.30;;;;;;5001692;28;20222;-76
2024/01/16 01:11:39;;;;;;;12.82;7.05;;;2.10;76.40;;;;;;5002546;28;20307;-76
2024/01/16 01:14:07;;;;;;;11.50;7.07;;;2.10;76.30;;;;;;5003098;28;20243;-77
2024/01/16 01:16:36;;;;;;;9.93;7.05;;;2.10;76.30;;;;;;5019274;28;21195;-76
2024/01/16 01:19:04;;;;;;;8.70;6.22;;;2.10;76.30;;;;;;5009662;28;20201;-77
2024/01/16 01:21:32;;;;;;;14.10;7.63;;;2.00;76.20;;;;;;5004448;28;20209;-77
2024/01/16 01:24:00;;;;;;;14.05;7.35;;;2.00;76.30;;;;;;5004692;28;20208;-77
2024/01/16 01:26:28;;;;;;;11.07;6.82;;;2.00;76.30;;;;;;5003629;28;20223;-77
2024/01/16 01:28:57;;;;;;;12.30;6.28;;;2.00;76.40;;;;;;5015804;28;20679;-76
2024/01/16 01:31:25;;;;;;;10.85;6.95;;;2.00;76.50;;;;;;5011000;28;20882;-77
2024/01/16 01:33:53;;;;;;;11.63;6.30;;;2.00;76.50;;;;;;5002187;28;20226;-77
2024/01/16 01:36:21;;;;;;;12.25;6.65;;;2.00;76.50;;;;;;5005711;28;20890;-77
2024/01/16 01:38:49;;;;;;;13.38;6.65;;;2.00;76.50;;;;;;5001211;28;20237;-76
2024/01/16 01:41:18;;;;;;;11.93;6.18;;;2.00;76.50;;;;;;5003863;28;20208;-77
2024/01/16 01:43:48;;;;;;;12.52;6.93;;;2.00;76.50;;;;;;5000493;28;20208;-76
2024/01/16 01:46:18;;;;;;;9.98;6.70;;;2.00;76.50;;;;;;5001119;28;20209;-76
2024/01/16 01:48:48;;;;;;;12.55;6.97;;;2.00;76.50;;;;;;5001952;28;20220;-77
2024/01/16 01:51:19;;;;;;;11.27;6.60;;;2.00;76.40;;;;;;5002475;28;20200;-77
2024/01/16 01:53:50;;;;;;;12.18;6.00;;;2.00;76.40;;;;;;5000512;28;20667;-77
2024/01/16 01:56:19;;;;;;;12.82;8.15;;;2.00;76.50;;;;;;5016630;28;20216;-77
2024/01/16 01:58:50;;;;;;;14.20;6.80;;;2.00;76.40;;;;;;5004987;28;20200;-76
2024/01/16 02:01:22;;;;;;;13.85;6.03;;;2.00;76.40;;;;;;5002540;28;20560;-77
2024/01/16 02:03:51;;;;;;;10.13;5.95;;;2.00;76.40;;;;;;5001695;28;20202;-76
2024/01/16 02:06:19;;;;;;;14.88;6.78;;;2.00;76.40;;;;;;5002915;28;20626;-76
2024/01/16 02:08:48;;;;;;;11.63;6.53;;;2.00;76.40;;;;;;5007605;28;20232;-77
2024/01/16 02:11:16;;;;;;;15.60;5.68;;;2.00;76.50;;;;;;5001955;28;20224;-76
2024/01/16 02:13:44;;;;;;;10.68;6.47;;;1.90;76.50;;;;;;5000932;28;20209;-77
2024/01/16 02:16:25;;;;;;;15.73;6.88;;;1.90;76.50;;;;;;5002635;28;20702;-77
2024/01/16 02:18:53;;;;;;;14.70;6.90;;;2.00;76.50;;;;;;4998905;28;20581;-77
2024/01/16 02:21:23;;;;;;;11.35;6.45;;;2.00;76.50;;;;;;5000835;28;20199;-77
2024/01/16 02:23:52;;;;;;;12.60;6.35;;;2.00;76.50;;;;;;4999889;28;20211;-77
2024/01/16 02:26:21;;;;;;;13.02;6.60;;;2.00;76.50;;;;;;5018699;28;20210;-76
2024/01/16 02:28:49;;;;;;;11.52;5.75;;;2.00;76.40;;;;;;5002387;28;20693;-77
2024/01/16 02:31:17;;;;;;;14.60;7.95;;;2.00;76.40;;;;;;5003190;28;20240;-77
2024/01/16 02:33:45;;;;;;;12.02;6.53;;;2.00;76.50;;;;;;4999911;28;20225;-77
2024/01/16 02:36:13;;;;;;;12.93;7.20;;;2.00;76.40;;;;;;5002012;28;20208;-76
2024/01/16 02:38:41;;;;;;;11.80;6.80;;;2.00;76.40;;;;;;4998262;28;20212;-77
2024/01/16 02:41:16;;;;;;;13.45;6.75;;;2.00;76.40;;;;;;5006074;28;20208;-77
2024/01/16 02:43:45;;;;;;;10.63;7.03;;;1.90;76.40;;;;;;5003311;28;20248;-76
2024/01/16 02:46:13;;;;;;;17.00;7.65;;;1.90;76.40;;;;;;5000184;28;20219;-76
2024/01/16 02:48:42;;;;;;;15.60;7.20;;;1.90;76.40;;;;;;5000951;28;20207;-76
2024/01/16 02:51:10;;;;;;;16.98;7.70;;;1.90;76.40;;;;;;5019234;28;20261;-76
2024/01/16 02:53:40;;;;;;;14.02;7.70;;;1.90;76.50;;;;;;5003880;28;20625;-76
2024/01/16 02:56:09;;;;;;;15.32;8.05;;;1.90;76.50;;;;;;5001690;28;20295;-76
2024/01/16 02:58:38;;;;;;;18.20;7.90;;;1.90;76.50;;;;;;4998719;28;20630;-76
2024/01/16 03:01:07;;;;;;;14.02;7.40;;;1.90;76.50;;;;;;5000311;28;20237;-76
2024/01/16 03:03:35;;;;;;;17.30;8.15;;;1.90;76.60;;;;;;5007047;28;20212;-76
2024/01/16 03:06:04;;;;;;;16.80;8.00;;;1.90;76.60;;;;;;5008570;28;20211;-76
2024/01/16 03:08:32;;;;;;;11.75;7.45;;;2.00;76.50;;;;;;5004695;28;20202;-76
2024/01/16 03:11:00;;;;;;;11.95;7.43;;;2.00;76.40;;;;;;4999695;28;20225;-76
2024/01/16 03:13:29;;;;;;;19.17;7.90;;;2.00;76.40;;;;;;5004961;28;20196;-76
2024/01/16 03:15:58;;;;;;;11.05;7.97;;;2.00;76.40;;;;;;5004510;28;20651;-76
2024/01/16 03:18:27;;;;;;;13.88;7.55;;;2.00;76.30;;;;;;5007373;28;20202;-76
2024/01/16 03:20:55;;;;;;;17.30;9.60;;;2.00;76.30;;;;;;5006940;28;20276;-76
2024/01/16 03:23:23;;;;;;;14.20;7.95;;;2.00;76.30;;;;;;5005043;28;20531;-76
2024/01/16 03:25:52;;;;;;;14.57;8.30;;;2.00;76.30;;;;;;4998551;28;20220;-76
2024/01/16 03:28:21;;;;;;;12.25;8.13;;;2.00;76.30;;;;;;5004334;28;20550;-77
2024/01/16 03:30:49;;;;;;;14.27;8.32;;;2.00;76.30;;;;;;5006007;28;20821;-77
2024/01/16 03:33:19;;;;;;;13.93;6.90;;;2.00;76.40;;;;;;5005031;28;20244;-76
2024/01/16 03:35:47;;;;;;;11.48;7.60;;;2.00;76.40;;;;;;5001131;28;20565;-76
2024/01/16 03:38:16;;;;;;;13.60;8.15;;;2.00;76.40;;;;;;5003281;28;20608;-76
2024/01/16 03:40:44;;;;;;;17.38;7.93;;;2.00;76.40;;;;;;5005455;28;20208;-76
2024/01/16 03:43:12;;;;;;;15.73;8.35;;;1.90;76.40;;;;;;5006738;28;20211;-76
2024/01/16 03:45:40;;;;;;;11.05;7.95;;;1.90;76.40;;;;;;5009479;28;20218;-76
2024/01/16 03:48:08;;;;;;;13.65;8.52;;;1.90;76.50;;;;;;5014104;28;20204;-76
2024/01/16 03:50:37;;;;;;;16.08;8.65;;;1.90;76.50;;;;;;5003787;28;20595;-76
2024/01/16 03:53:05;;;;;;;17.17;8.05;;;1.90;76.50;;;;;;5008389;28;20232;-77
2024/01/16 03:55:34;;;;;;;12.63;7.45;;;1.90;76.40;;;;;;5006369;28;20370;-76
2024/01/16 03:58:02;;;;;;;17.60;8.23;;;1.90;76.50;;;;;;5004679;28;20213;-76
2024/01/16 04:00:30;;;;;;;13.63;7.80;;;1.90;76.50;;;;;;5002862;28;20244;-76
2024/01/16 04:02:58;;;;;;;11.82;8.02;;;2.00;76.60;;;;;;5008314;28;20215;-76
2024/01/16 04:05:26;;;;;;;11.18;7.82;;;2.00;76.50;;;;;;5002974;28;20304;-76
2024/01/16 04:07:57;;;;;;;14.45;8.65;;;2.00;76.40;;;;;;5005079;28;20269;-76
2024/01/16 04:10:27;;;;;;;14.63;7.95;;;1.90;76.50;;;;;;5001456;28;20216;-76
2024/01/16 04:12:56;;;;;;;16.45;8.40;;;1.90;76.50;;;;;;5000733;28;20227;-75
2024/01/16 04:15:24;;;;;;;13.38;7.85;;;2.00;76.50;;;;;;5001953;28;20639;-76
2024/01/16 04:17:52;;;;;;;12.80;8.40;;;2.00;76.50;;;;;;5007729;28;20207;-76
2024/01/16 04:20:20;;;;;;;16.55;8.25;;;2.00;76.40;;;;;;5005691;28;20202;-76
2024/01/16 04:22:48;;;;;;;15.93;7.95;;;2.00;76.30;;;;;;5002134;28;20292;-76
2024/01/16 04:25:17;;;;;;;16.23;8.52;;;2.00;76.40;;;;;;5001643;28;20214;-76
2024/01/16 04:27:45;;;;;;;11.15;8.10;;;2.10;76.40;;;;;;5008243;28;20229;-76
2024/01/16 04:30:14;;;;;;;19.13;8.82;;;2.10;76.40;;;;;;4999987;28;20214;-76
2024/01/16 04:32:42;;;;;;;15.13;9.23;;;2.10;76.20;;;;;;5001314;28;20225;-76
2024/01/16 04:35:11;;;;;;;12.60;7.53;;;2.10;76.20;;;;;;5002263;28;20960;-76
2024/01/16 04:37:40;;;;;;;13.05;7.55;;;2.10;76.20;;;;;;5004843;28;20212;-76
2024/01/16 04:40:09;;;;;;;22.17;8.88;;;2.10;76.20;;;;;;5009294;28;20205;-76
2024/01/16 04:42:40;;;;;;;13.23;7.68;;;2.10;76.10;;;;;;5007830;28;20207;-76
2024/01/16 04:45:10;;;;;;;14.10;7.15;;;2.10;76.10;;;;;;5000971;28;20217;-77
2024/01/16 04:47:37;;;;;;;14.18;7.28;;;2.00;76.10;;;;;;5020346;28;20568;-77
2024/01/16 04:50:07;;;;;;;17.77;7.90;;;2.00;76.10;;;;;;5001746;28;20221;-76
2024/01/16 04:52:37;;;;;;;14.85;7.88;;;1.90;76.10;;;;;;5005346;28;20282;-76
2024/01/16 04:55:06;;;;;;;14.15;7.40;;;1.90;76.10;;;;;;5003496;28;20544;-76
2024/01/16 04:57:34;;;;;;;14.18;8.07;;;1.90;76.10;;;;;;5003629;28;20204;-76
2024/01/16 05:00:06;;;;;;;13.15;7.82;;;1.90;76.10;;;;;;5003348;28;20207;-76
2024/01/16 05:02:35;;;;;;;11.27;7.90;;;1.90;76.30;;;;;;5002050;28;20440;-76
2024/01/16 05:05:06;;;;;;;12.60;7.90;;;1.90;76.30;;;;;;5004508;28;20815;-76
2024/01/16 05:07:35;;;;;;;15.73;8.18;;;2.00;76.30;;;;;;4999728;28;20307;-76
2024/01/16 05:10:04;;;;;;;14.07;8.25;;;2.00;76.10;;;;;;5004121;28;20214;-77
2024/01/16 05:12:33;;;;;;;17.65;8.52;;;2.00;76.20;;;;;;5009767;28;20213;-76
2024/01/16 05:15:03;;;;;;;12.65;8.68;;;2.00;76.10;;;;;;5004416;28;20627;-76
2024/01/16 05:17:31;;;;;;;15.95;8.85;;;2.00;76.10;;;;;;4998966;28;20525;-76
2024/01/16 05:20:00;;;;;;;14.95;8.20;;;2.00;76.00;;;;;;4998487;28;20221;-76
2024/01/16 05:22:28;;;;;;;11.88;7.30;;;2.00;76.00;;;;;;5006522;28;20221;-76
2024/01/16 05:24:56;;;;;;;14.75;8.30;;;2.00;76.00;;;;;;5002800;28;20643;-76
2024/01/16 05:27:25;;;;;;;11.77;6.63;;;2.00;75.90;;;;;;5004556;28;20202;-76
2024/01/16 05:29:53;;;;;;;22.38;8.00;;;2.00;75.90;;;;;;5008959;28;20224;-76
2024/01/16 05:32:22;;;;;;;11.43;8.20;;;2.00;75.90;;;;;;5004293;28;20229;-76
2024/01/16 05:34:50;;;;;;;15.93;8.27;;;1.90;75.80;;;;;;5002861;28;20757;-77
2024/01/16 05:37:18;;;;;;;12.80;7.20;;;1.90;75.80;;;;;;5001437;28;20205;-76
2024/01/16 05:39:46;;;;;;;12.50;7.60;;;1.90;75.80;;;;;;5001687;28;20209;-76
2024/01/16 05:42:14;;;;;;;12.15;7.55;;;1.90;75.80;;;;;;5013267;28;20211;-77
2024/01/16 05:44:42;;;;;;;15.90;7.80;;;1.90;75.90;;;;;;5014325;28;20202;-76
2024/01/16 05:47:10;;;;;;;13.65;7.95;;;1.90;75.90;;;;;;5017646;28;20214;-76
2024/01/16 05:49:41;;;;;;;17.70;8.27;;;1.90;75.70;;;;;;5003433;28;20273;-76
2024/01/16 05:52:10;;;;;;;21.00;8.50;;;1.90;75.70;;;;;;5000441;28;20228;-76
2024/01/16 05:54:38;;;;;;;17.63;9.20;;;1.80;75.70;;;;;;5004428;28;20221;-76
2024/01/16 05:57:05;;;;;;;15.30;9.35;;;1.80;75.70;;;;;;5001944;28;21285;-76
2024/01/16 05:59:33;;;;;;;16.15;9.57;;;1.70;75.70;;;;;;5007595;28;20816;-76
2024/01/16 06:02:01;;;;;;;18.15;9.55;;;1.70;75.80;;;;;;5002644;28;20649;-76
2024/01/16 06:04:29;;;;;;;20.08;9.73;;;1.70;75.80;;;;;;5002512;28;20211;-76
2024/01/16 06:06:59;;;;;;;15.65;9.52;;;1.70;75.80;;;;;;5003552;28;20206;-77
2024/01/16 06:09:27;;;;;;;16.27;10.30;;;1.70;75.70;;;;;;4999560;28;20755;-76
2024/01/16 06:11:55;;;;;;;16.45;8.80;;;1.70;75.70;;;;;;5002685;28;20650;-76
2024/01/16 06:14:23;;;;;;;21.13;10.18;;;1.60;75.50;;;;;;4998756;28;20224;-76
2024/01/16 06:16:51;;;;;;;13.70;9.35;;;1.50;75.50;;;;;;4998815;28;20201;-76
2024/01/16 06:19:19;;;;;;;14.90;8.93;;;1.50;75.50;;;;;;5000489;28;20220;-76
2024/01/16 06:21:47;;;;;;;18.23;9.07;;;1.50;75.60;;;;;;5004149;28;20637;-76
2024/01/16 06:24:17;;;;;;;15.13;8.57;;;1.50;75.60;;;;;;4999649;28;20275;-76
2024/01/16 06:26:46;;;;;;;17.80;9.95;;;1.40;75.60;;;;;;5003703;28;20276;-76
2024/01/16 06:29:14;;;;;;;19.65;9.45;;;1.40;75.60;;;;;;5001968;28;20513;-77
2024/01/16 06:31:55;;;;;;;18.05;10.25;;;1.40;75.70;;;;;;4994728;28;20330;-77
2024/01/16 06:34:23;;;;;;;17.55;9.10;;;1.40;75.70;;;;;;4982893;28;20624;-77
2024/01/16 06:36:51;;;;;;;22.58;9.88;;;1.40;75.70;;;;;;4989327;28;20249;-77
2024/01/16 06:39:20;;;;;;;18.15;9.35;;;1.40;75.50;;;;;;4985043;28;20290;-77
2024/01/16 06:41:48;;;;;;;19.70;8.23;;;1.40;75.40;;;;;;4984164;28;20988;-77
2024/01/16 06:44:16;;;;;;;24.95;9.55;;;1.30;75.40;;;;;;4985098;28;20226;-77
2024/01/16 06:46:45;;;;;;;19.27;10.27;;;1.30;75.40;;;;;;4986971;28;20641;-77
2024/01/16 06:49:13;;;;;;;18.77;9.73;;;1.30;75.50;;;;;;5000645;28;20226;-77
2024/01/16 06:51:41;;;;;;;21.33;9.48;;;1.30;75.40;;;;;;4989916;28;20222;-77
2024/01/16 06:54:09;;;;;;;17.50;9.85;;;1.30;75.40;;;;;;4983957;28;20214;-77
2024/01/16 06:56:38;;;;;;;20.48;10.45;;;1.20;75.40;;;;;;4996000;28;20217;-77
2024/01/16 06:59:06;;;;;;;18.55;10.05;;;1.30;75.50;;;;;;4981534;28;21584;-76
2024/01/16 07:01:38;;;;;;;16.55;9.68;;;1.30;75.50;;;;;;4986194;28;20225;-77
2024/01/16 07:04:06;;;;;;;18.80;10.43;;;1.20;75.40;;;;;;4985363;28;20315;-76
2024/01/16 07:06:36;;;;;;;19.58;10.52;;;1.20;75.30;;;;;;4985646;28;20208;-77
2024/01/16 07:09:05;;;;;;;21.08;12.00;;;1.20;75.30;;;;;;4987666;28;20211;-77
2024/01/16 07:11:34;;;;;;;23.27;10.88;;;1.20;75.30;;;;;;4984266;28;20227;-77
2024/01/16 07:14:04;;;;;;;19.70;11.02;;;1.20;75.30;;;;;;4983693;28;20204;-77
2024/01/16 07:16:32;;;;;;;14.68;10.10;;;1.20;75.40;;;;;;5001761;28;20585;-78
2024/01/16 07:19:00;;;;;;;17.77;9.52;;;1.20;75.40;;;;;;4983532;28;20210;-77
2024/01/16 07:21:28;;;;;;;20.38;10.35;;;1.20;75.40;;;;;;4983794;28;20214;-77
2024/01/16 07:23:56;;;;;;;17.60;10.10;;;1.20;75.30;;;;;;4985487;28;20212;-77
2024/01/16 07:26:25;;;;;;;19.25;10.30;;;1.20;75.30;;;;;;4984010;28;20209;-76
2024/01/16 07:28:53;;;;;;;15.90;9.63;;;1.20;75.20;;;;;;4986961;28;20201;-76
2024/01/16 07:31:22;;;;;;;17.55;9.88;;;1.20;75.10;;;;;;4987431;28;20639;-77
2024/01/16 07:33:50;;;;;;;17.40;10.57;;;1.10;75.10;;;;;;4996246;28;20241;-77
2024/01/16 07:36:19;;;;;;;17.77;10.68;;;1.10;74.90;;;;;;5002802;28;20309;-76
2024/01/16 07:38:47;;;;;;;16.70;10.55;;;1.00;74.90;;;;;;4985054;28;20647;-77
2024/01/16 07:41:16;;;;;;;22.02;10.43;;;1.00;74.90;;;;;;4982734;28;20209;-77
2024/01/16 07:43:44;;;;;;;20.58;10.73;;;1.00;75.00;;;;;;4985148;28;20544;-77
2024/01/16 07:46:17;;;;;;;18.40;11.45;;;1.00;75.10;;;;;;4981978;28;20299;-76
2024/01/16 07:48:47;;;;;;;17.70;10.43;;;1.00;75.20;;;;;;4981901;28;20221;-77
2024/01/16 07:51:15;;;;;;;19.88;10.48;;;1.00;75.20;;;;;;4980524;28;20211;-76
2024/01/16 07:53:43;;;;;;;18.52;10.23;;;1.00;75.40;;;;;;4980139;28;20227;-76
2024/01/16 07:56:11;;;;;;;14.90;9.50;;;1.10;75.40;;;;;;4985266;28;20232;-77
2024/01/16 07:58:39;;;;;;;18.92;10.27;;;1.10;75.20;;;;;;4991031;28;20215;-77
2024/01/16 08:01:07;;;;;;;16.70;9.63;;;1.10;75.20;;;;;;4985110;28;20239;-76
2024/01/16 08:03:35;;;;;;;19.58;10.00;;;1.10;75.20;;;;;;4988972;28;20236;-76
2024/01/16 08:06:05;;;;;;;20.02;10.07;;;1.20;75.20;;;;;;4984300;28;20241;-76
2024/01/16 08:08:34;;;;;;;20.52;9.68;;;1.20;75.20;;;;;;4982380;28;20255;-76
2024/01/16 08:11:03;;;;;;;18.00;9.80;;;1.20;75.30;;;;;;4987114;28;20207;-76
2024/01/16 08:13:31;;;;;;;20.40;10.15;;;1.20;75.20;;;;;;4983720;28;20738;-77
2024/01/16 08:16:00;;;;;;;20.38;9.65;;;1.30;75.30;;;;;;4982684;28;20656;-77
2024/01/16 08:18:28;;;;;;;19.95;10.50;;;1.30;75.30;;;;;;4988899;28;20225;-77
2024/01/16 08:20:56;;;;;;;18.70;9.75;;;1.30;75.20;;;;;;5001036;28;20626;-77
2024/01/16 08:23:25;;;;;;;16.85;9.68;;;1.30;75.30;;;;;;4996717;28;20204;-77
2024/01/16 08:25:53;;;;;;;15.95;9.40;;;1.40;75.30;;;;;;4993085;28;20208;-77
2024/01/16 08:28:24;;;;;;;14.60;9.30;;;1.40;75.20;;;;;;5000960;28;20611;-77
2024/01/16 08:30:51;;;;;;;20.13;10.02;;;1.40;75.20;;;;;;4981260;28;20330;-77
2024/01/16 08:33:20;;;;;;;23.17;9.50;;;1.40;75.10;;;;;;5002010;28;20903;-77
2024/01/16 08:36:00;;;;;;;19.33;9.95;;;1.40;75.10;;;;;;5000218;28;20370;-77
2024/01/16 08:38:30;;;;;;;17.10;9.40;;;1.40;75.20;;;;;;4997934;28;20215;-77
2024/01/16 08:40:58;;;;;;;17.40;9.90;;;1.50;75.20;;;;;;4981218;28;20237;-77
2024/01/16 08:43:26;;;;;;;18.83;10.23;;;1.50;75.20;;;;;;4984260;28;20209;-76
2024/01/16 08:45:54;;;;;;;17.27;9.35;;;1.50;75.20;;;;;;4989804;28;20650;-76
2024/01/16 08:48:22;;;;;;;19.90;10.25;;;1.60;75.10;;;;;;4984333;28;20204;-77
2024/01/16 08:50:50;;;;;;;16.15;9.40;;;1.60;75.00;;;;;;4983994;28;20207;-79
2024/01/16 08:53:18;;;;;;;15.48;9.15;;;1.60;75.00;;;;;;4996645;28;20227;-78
2024/01/16 08:55:48;;;;;;;23.02;11.27;;;1.60;75.00;;;;;;4984119;28;20258;-77
2024/01/16 08:58:16;;;;;;;19.95;10.10;;;1.60;74.90;;;;;;4983959;28;20612;-77
2024/01/16 09:00:44;;;;;;;19.98;9.15;;;1.60;74.90;;;;;;4990637;28;20250;-77
2024/01/16 09:03:13;;;;;;;17.33;9.43;;;1.70;75.00;;;;;;4985767;28;20204;-77
2024/01/16 09:05:41;;;;;;;15.13;9.27;;;1.70;74.90;;;;;;4983736;28;20208;-77
2024/01/16 09:08:09;;;;;;;15.63;9.65;;;1.70;74.90;;;;;;4986399;28;20221;-77
2024/01/16 09:10:40;;;;;;;18.42;8.52;;;1.70;74.90;;;;;;4987579;28;20231;-77
2024/01/16 09:13:10;;;;;;;22.17;9.00;;;1.80;74.90;;;;;;4987117;28;20358;-77
2024/01/16 09:15:38;;;;;;;20.33;9.35;;;1.70;74.70;;;;;;4982830;28;20210;-77
2024/01/16 09:18:06;;;;;;;14.05;8.10;;;1.80;74.70;;;;;;4997462;28;20635;-77
2024/01/16 09:20:35;;;;;;;18.73;8.82;;;1.80;74.80;;;;;;4982657;28;20214;-77
2024/01/16 09:23:03;;;;;;;20.45;9.90;;;1.70;74.70;;;;;;4978807;28;20208;-77
2024/01/16 09:25:31;;;;;;;14.00;8.27;;;1.80;74.70;;;;;;4980740;28;20211;-77
2024/01/16 09:27:59;;;;;;;17.45;8.05;;;1.80;74.70;;;;;;4984456;28;20684;-76
2024/01/16 09:30:28;;;;;;;15.18;7.90;;;1.80;74.80;;;;;;4984600;28;20240;-77
2024/01/16 09:32:56;;;;;;;16.60;8.38;;;1.90;74.80;;;;;;4978161;28;20551;-77
2024/01/16 09:35:25;;;;;;;15.35;7.90;;;1.90;74.80;;;;;;4985501;28;20219;-77
2024/01/16 09:37:52;;;;;;;15.98;7.30;;;1.90;74.80;;;;;;4995562;28;20264;-77
2024/01/16 09:40:21;;;;;;;12.02;7.28;;;2.00;74.70;;;;;;4985838;28;20200;-77
2024/01/16 09:42:49;;;;;;;13.55;7.20;;;2.00;74.60;;;;;;4984912;28;20203;-77
2024/01/16 09:45:21;;;;;;;15.80;7.20;;;2.00;74.60;;;;;;4984544;28;20215;-76
2024/01/16 09:47:53;;;;;;;9.30;6.03;;;2.10;74.60;;;;;;4982548;28;20216;-77
2024/01/16 09:50:21;;;;;;;13.43;6.53;;;2.10;74.60;;;;;;4982560;28;20708;-77
2024/01/16 09:52:50;;;;;;;11.30;5.28;;;2.10;74.40;;;;;;4981147;28;20576;-77
2024/01/16 09:55:19;;;;;;;12.93;6.45;;;2.20;74.40;;;;;;4981874;28;20204;-77
2024/01/16 09:57:52;;;;;;;11.13;6.40;;;2.20;74.30;;;;;;4982006;28;20331;-76
2024/01/16 10:00:21;;;;;;;13.60;6.07;;;2.20;74.30;;;;;;4986014;28;20217;-77
2024/01/16 10:02:51;;;;;;;14.48;6.80;;;2.20;74.30;;;;;;4999121;28;20208;-77
2024/01/16 10:05:19;;;;;;;12.85;6.97;;;2.30;74.30;;;;;;4981784;28;20579;-77
2024/01/16 10:07:48;;;;;;;13.38;6.97;;;2.30;74.30;;;;;;4982493;28;20217;-77
2024/01/16 10:10:16;;;;;;;15.38;6.57;;;2.30;74.30;;;;;;4980484;28;20220;-77
2024/01/16 10:12:57;;;;;;;13.82;6.47;;;2.40;74.30;;;;;;4988464;28;20211;-77
2024/01/16 10:15:26;;;;;;;12.27;6.85;;;2.40;74.20;;;;;;5000194;28;20210;-77
2024/01/16 10:17:56;;;;;;;12.23;7.25;;;2.50;74.20;;;;;;5003637;28;20299;-77
2024/01/16 10:20:34;;;;;;;13.38;6.50;;;2.50;74.00;;;;;;5000348;28;20202;-77
2024/01/16 10:23:03;;;;;;;12.85;7.22;;;2.50;74.00;;;;;;4985619;28;20235;-77
2024/01/16 10:25:31;;;;;;;12.13;7.20;;;2.50;74.00;;;;;;4987744;28;20201;-76
2024/01/16 10:28:04;;;;;;;15.18;8.27;;;2.60;74.00;;;;;;5002144;28;20573;-77
2024/01/16 10:30:33;;;;;;;15.30;7.93;;;2.60;73.90;;;;;;5001718;28;20243;-77
2024/01/16 10:33:16;;;;;;;16.63;9.68;;;2.60;73.80;;;;;;4983783;28;20242;-77
2024/01/16 10:35:44;;;;;;;15.18;7.80;;;2.60;73.50;;;;;;4984261;28;20313;-77
2024/01/16 10:38:21;;;;;;;13.65;7.45;;;2.60;73.60;;;;;;4989632;28;20249;-77
2024/01/16 10:41:04;;;;;;;14.93;8.20;;;2.60;73.80;;;;;;4990251;28;20213;-77
2024/01/16 10:43:32;;;;;;;17.95;7.93;;;2.60;73.80;;;;;;4989140;28;20201;-77
2024/01/16 10:46:08;;;;;;;14.88;7.88;;;2.70;73.70;;;;;;4990987;28;20214;-77
2024/01/16 10:48:39;;;;;;;14.43;8.35;;;2.70;73.60;;;;;;4985490;28;20228;-77
2024/01/16 10:51:08;;;;;;;14.70;8.40;;;2.70;73.60;;;;;;4984690;28;20256;-77
2024/01/16 10:53:38;;;;;;;16.48;7.93;;;2.70;73.50;;;;;;4984494;28;20246;-77
2024/01/16 10:56:10;;;;;;;18.45;8.57;;;2.70;73.40;;;;;;4984157;28;20260;-77
2024/01/16 10:58:42;;;;;;;17.08;9.00;;;2.70;73.30;;;;;;5000518;28;20893;-77
2024/01/16 11:01:13;;;;;;;16.23;8.68;;;2.70;73.40;;;;;;4984367;28;20250;-77
2024/01/16 11:03:48;;;;;;;17.35;8.30;;;2.70;73.30;;;;;;4986307;28;20979;-77
2024/01/16 11:06:18;;;;;;;13.45;7.38;;;2.70;73.30;;;;;;4982747;28;20273;-77
2024/01/16 11:08:48;;;;;;;13.98;7.90;;;2.70;73.30;;;;;;4986410;28;20697;-77
2024/01/16 11:11:17;;;;;;;19.30;7.95;;;2.70;73.40;;;;;;4985631;28;20794;-77
2024/01/16 11:13:47;;;;;;;12.05;6.60;;;2.70;73.40;;;;;;4982926;28;20228;-77
2024/01/16 11:16:15;;;;;;;15.55;6.65;;;2.70;73.30;;;;;;4986732;28;20230;-77
2024/01/16 11:18:45;;;;;;;15.93;6.80;;;2.70;73.30;;;;;;4996212;28;20252;-77
2024/01/16 11:21:15;;;;;;;15.85;6.00;;;2.70;73.20;;;;;;5000499;28;20214;-77
2024/01/16 11:23:47;;;;;;;13.57;6.10;;;2.70;73.20;;;;;;4985689;28;20205;-77
2024/01/16 11:26:36;;;;;;;13.93;5.55;;;2.80;73.20;;;;;;4986844;28;20209;-77
2024/01/16 11:29:34;;;;;;;17.05;6.85;;;2.80;73.10;;;;;;5000106;28;20652;-77
2024/01/16 11:32:04;;;;;;;11.50;6.95;;;2.80;73.10;;;;;;4984414;28;20233;-77
2024/01/16 11:34:56;;;;;;;13.10;7.72;;;2.80;73.00;;;;;;4982286;28;20206;-75
2024/01/16 11:37:29;;;;;;;14.50;7.55;;;2.80;73.00;;;;;;4985853;28;20228;-77
2024/01/16 11:40:23;;;;;;;10.98;5.97;;;2.80;73.00;;;;;;4985075;28;20202;-77
2024/01/16 11:42:53;;;;;;;17.85;7.15;;;2.80;73.00;;;;;;4999502;28;20300;-77
2024/01/16 11:45:51;;;;;;;19.48;8.50;;;2.80;73.00;;;;;;4986813;28;20203;-77
2024/01/16 11:48:20;;;;;;;14.27;6.07;;;2.90;73.00;;;;;;4983559;28;20206;-77
2024/01/16 11:50:50;;;;;;;13.15;6.72;;;2.90;73.00;;;;;;4982895;28;20746;-77
2024/01/16 11:53:38;;;;;;;19.45;7.75;;;2.90;73.00;;;;;;4981352;28;20662;-77
2024/01/16 11:56:39;;;;;;;13.63;7.55;;;2.90;72.90;;;;;;4982769;28;20210;-75
2024/01/16 11:59:41;;;;;;;14.27;7.63;;;2.90;72.90;;;;;;4982695;28;20206;-77
2024/01/16 12:02:15;;;;;;;13.95;8.60;;;2.90;72.90;;;;;;5015743;28;20225;-77
2024/01/16 12:04:43;;;;;;;17.33;8.80;;;2.90;72.90;;;;;;4997276;28;20217;-77
2024/01/16 12:07:12;;;;;;;13.25;7.03;;;3.00;72.90;;;;;;4984065;28;20217;-77
2024/01/16 12:09:40;;;;;;;17.48;7.97;;;3.00;72.70;;;;;;4981274;28;20221;-78
2024/01/16 12:12:08;;;;;;;20.00;8.40;;;3.00;72.90;;;;;;4984884;28;20205;-77
2024/01/16 12:14:37;;;;;;;16.83;7.97;;;3.00;72.70;;;;;;4997738;28;20226;-77
2024/01/16 12:17:12;;;;;;;17.58;8.25;;;3.10;72.90;;;;;;4978400;28;20206;-76
2024/01/16 12:19:42;;;;;;;14.63;8.05;;;3.10;72.80;;;;;;4985696;28;20221;-76
2024/01/16 12:22:14;;;;;;;16.30;8.40;;;3.10;72.60;;;;;;4996644;28;20590;-76
2024/01/16 12:24:43;;;;;;;17.55;8.20;;;3.10;72.60;;;;;;4983473;28;20201;-77
2024/01/16 12:27:11;;;;;;;13.55;6.93;;;3.10;72.60;;;;;;4986847;28;20301;-76
2024/01/16 12:29:41;;;;;;;15.77;8.60;;;3.10;72.60;;;;;;4990883;28;20221;-76
2024/01/16 12:32:10;;;;;;;15.00;7.80;;;3.20;72.50;;;;;;5000300;28;20260;-77
2024/01/16 12:34:46;;;;;;;20.27;9.27;;;3.20;72.60;;;;;;4980304;28;20251;-77
2024/01/16 12:37:16;;;;;;;19.65;8.77;;;3.20;72.60;;;;;;4991463;28;20237;-77
2024/01/16 12:39:45;;;;;;;24.15;8.23;;;3.20;72.70;;;;;;4980321;28;20666;-77
2024/01/16 12:42:13;;;;;;;14.60;7.53;;;3.30;72.60;;;;;;4978775;28;20203;-77
2024/01/16 12:44:43;;;;;;;18.83;7.90;;;3.30;72.50;;;;;;4985519;28;20216;-75
2024/01/16 12:47:15;;;;;;;15.18;7.68;;;3.30;72.50;;;;;;4983820;28;20202;-77
2024/01/16 12:49:43;;;;;;;15.70;7.28;;;3.30;72.40;;;;;;4983572;28;20285;-77
2024/01/16 12:52:20;;;;;;;16.70;7.20;;;3.30;72.40;;;;;;4985923;28;20312;-77
2024/01/16 12:54:59;;;;;;;18.38;7.25;;;3.30;72.40;;;;;;5002511;28;20267;-77
2024/01/16 12:57:27;;;;;;;15.88;6.90;;;3.30;72.40;;;;;;4983537;28;20198;-77
2024/01/16 12:59:57;;;;;;;16.05;8.02;;;3.30;72.40;;;;;;4984288;28;20209;-77